Página principal
METAR-TAF:

METAR-TAF

Aeroportos :

Kuwait, Kuwait

Aeroporto Internacional do Kuwait

latitude: 29-13N, longitude: 047-59E, altura: 55 m

Observação actual do tempo

O boletim foi feito há 18 minutos, às 21:00 UTC
Vento 16 kt de norte
Temperatura 36°C
Humidade 15%
Pressão 1006 hPa
Visibilidade 10 km ou mais
sem nuvens abaixo de 1500 metros e sem cumulonimbus

METAR: OKBK 272100Z 35016KT CAVOK 36/05 Q1006 NOSIG

Hora: 00:18 (21:18 UTC)

Previsão

O boletim foi feito há 4 horas e 33 minutos, às 16:45 UTC
Previsão válida de 27 às 18 UTC a 28 às 24 UTC
Vento 10 kt de norte com rajadas de 20 kt
Visibilidade: 7000 m
Céu limpo
Temporariamente
de 27 às 21 UTC a 28 às 06 UTC
Visibilidade: 4000 m
Poeira levantada pelo vento

TAF: OKBK 271645Z 2718/2824 35010G20KT 7000 SKC TEMPO 2721/2806 4000 BLDU

Observações e previsões do tempo de mais de 4000 aeroportos (mensagens METAR e TAF).

As estações disponíveis são os pontos amarelos e vermelhos sobre o mapa.

Mova o rato sobre o mapa para ver o nome da estação.

Depois clique no ponto para visualizar as observações e previsões meteorológicas.

Para alterar o mapa : clique nos botões verdes com uma cruz preta para aumentar o zoom; no botão verde com uma pitada de zoom; ou nas setas verdes para mapas adjacentes.


METAR-TAF: